sensor_id;sensor_type;location;lat;lon;timestamp;P1;durP1;ratioP1;P2;durP2;ratioP2
77038;SDS011;65970;50.476;4.840;2023-02-03T00:00:40;1.40;;;0.85;;
77038;SDS011;65970;50.476;4.840;2023-02-03T00:05:41;0.80;;;0.80;;
77038;SDS011;65970;50.476;4.840;2023-02-03T00:10:42;2.03;;;0.93;;
77038;SDS011;65970;50.476;4.840;2023-02-03T00:15:42;1.52;;;0.93;;
77038;SDS011;65970;50.476;4.840;2023-02-03T00:20:43;3.80;;;0.98;;
77038;SDS011;65970;50.476;4.840;2023-02-03T00:25:44;0.70;;;0.70;;
77038;SDS011;65970;50.476;4.840;2023-02-03T00:30:44;3.10;;;0.70;;
77038;SDS011;65970;50.476;4.840;2023-02-03T00:35:45;0.95;;;0.57;;
77038;SDS011;65970;50.476;4.840;2023-02-03T00:40:54;4.22;;;0.68;;
77038;SDS011;65970;50.476;4.840;2023-02-03T00:45:54;1.33;;;0.65;;
77038;SDS011;65970;50.476;4.840;2023-02-03T00:50:56;1.67;;;0.60;;
77038;SDS011;65970;50.476;4.840;2023-02-03T00:55:56;1.33;;;0.75;;
77038;SDS011;65970;50.476;4.840;2023-02-03T01:00:57;1.35;;;0.60;;
77038;SDS011;65970;50.476;4.840;2023-02-03T01:06:11;1.70;;;0.70;;
77038;SDS011;65970;50.476;4.840;2023-02-03T01:11:18;3.75;;;1.10;;
77038;SDS011;65970;50.476;4.840;2023-02-03T01:16:23;2.35;;;1.02;;
77038;SDS011;65970;50.476;4.840;2023-02-03T01:21:24;4.13;;;0.85;;
77038;SDS011;65970;50.476;4.840;2023-02-03T01:26:26;1.27;;;0.82;;
77038;SDS011;65970;50.476;4.840;2023-02-03T01:36:32;2.70;;;1.05;;
77038;SDS011;65970;50.476;4.840;2023-02-03T01:41:34;1.80;;;0.80;;
77038;SDS011;65970;50.476;4.840;2023-02-03T01:46:38;0.65;;;0.65;;
77038;SDS011;65970;50.476;4.840;2023-02-03T01:51:50;1.75;;;0.80;;
77038;SDS011;65970;50.476;4.840;2023-02-03T01:56:53;2.33;;;1.13;;
77038;SDS011;65970;50.476;4.840;2023-02-03T02:01:57;1.77;;;0.82;;
77038;SDS011;65970;50.476;4.840;2023-02-03T02:06:58;1.27;;;0.80;;
77038;SDS011;65970;50.476;4.840;2023-02-03T02:11:59;3.42;;;1.00;;
77038;SDS011;65970;50.476;4.840;2023-02-03T02:38:19;1.92;;;1.05;;
77038;SDS011;65970;50.476;4.840;2023-02-03T02:43:41;1.52;;;0.63;;
77038;SDS011;65970;50.476;4.840;2023-02-03T02:49:09;1.15;;;1.00;;
77038;SDS011;65970;50.476;4.840;2023-02-03T02:54:17;2.25;;;0.85;;
77038;SDS011;65970;50.476;4.840;2023-02-03T02:59:22;4.45;;;1.98;;
77038;SDS011;65970;50.476;4.840;2023-02-03T03:04:24;6.28;;;1.13;;
77038;SDS011;65970;50.476;4.840;2023-02-03T03:09:34;1.70;;;0.80;;
77038;SDS011;65970;50.476;4.840;2023-02-03T03:14:44;4.88;;;0.80;;
77038;SDS011;65970;50.476;4.840;2023-02-03T03:19:49;4.43;;;1.05;;
77038;SDS011;65970;50.476;4.840;2023-02-03T03:25:02;5.53;;;1.15;;
77038;SDS011;65970;50.476;4.840;2023-02-03T03:30:13;4.13;;;0.93;;
77038;SDS011;65970;50.476;4.840;2023-02-03T03:35:17;2.58;;;0.93;;
77038;SDS011;65970;50.476;4.840;2023-02-03T03:40:29;4.70;;;1.40;;
77038;SDS011;65970;50.476;4.840;2023-02-03T03:45:34;3.42;;;1.20;;
77038;SDS011;65970;50.476;4.840;2023-02-03T03:56:15;3.28;;;0.75;;
77038;SDS011;65970;50.476;4.840;2023-02-03T04:01:18;5.72;;;1.35;;
77038;SDS011;65970;50.476;4.840;2023-02-03T04:06:20;3.22;;;1.08;;
77038;SDS011;65970;50.476;4.840;2023-02-03T04:11:20;6.00;;;1.60;;
77038;SDS011;65970;50.476;4.840;2023-02-03T04:16:21;6.85;;;1.83;;
77038;SDS011;65970;50.476;4.840;2023-02-03T04:21:22;5.57;;;1.27;;
77038;SDS011;65970;50.476;4.840;2023-02-03T04:26:22;4.53;;;1.20;;
77038;SDS011;65970;50.476;4.840;2023-02-03T04:31:23;3.58;;;1.80;;
77038;SDS011;65970;50.476;4.840;2023-02-03T04:36:23;3.75;;;1.75;;
77038;SDS011;65970;50.476;4.840;2023-02-03T04:41:24;3.75;;;1.15;;
77038;SDS011;65970;50.476;4.840;2023-02-03T04:46:25;4.68;;;2.00;;
77038;SDS011;65970;50.476;4.840;2023-02-03T04:51:25;3.28;;;1.20;;
77038;SDS011;65970;50.476;4.840;2023-02-03T04:56:26;4.30;;;1.17;;
77038;SDS011;65970;50.476;4.840;2023-02-03T05:01:27;3.90;;;1.52;;
77038;SDS011;65970;50.476;4.840;2023-02-03T05:06:28;2.08;;;1.13;;
77038;SDS011;65970;50.476;4.840;2023-02-03T05:11:28;5.75;;;1.58;;
77038;SDS011;65970;50.476;4.840;2023-02-03T05:16:29;1.27;;;1.10;;
77038;SDS011;65970;50.476;4.840;2023-02-03T05:21:30;5.40;;;1.02;;
77038;SDS011;65970;50.476;4.840;2023-02-03T05:26:31;4.82;;;1.15;;
77038;SDS011;65970;50.476;4.840;2023-02-03T05:31:31;2.25;;;1.10;;
77038;SDS011;65970;50.476;4.840;2023-02-03T05:36:32;5.63;;;1.40;;
77038;SDS011;65970;50.476;4.840;2023-02-03T05:41:33;4.40;;;1.00;;
77038;SDS011;65970;50.476;4.840;2023-02-03T05:46:33;2.22;;;1.13;;
77038;SDS011;65970;50.476;4.840;2023-02-03T05:51:34;4.40;;;1.27;;
77038;SDS011;65970;50.476;4.840;2023-02-03T05:56:34;1.67;;;0.80;;
77038;SDS011;65970;50.476;4.840;2023-02-03T06:01:36;1.10;;;1.00;;
77038;SDS011;65970;50.476;4.840;2023-02-03T06:06:37;3.30;;;1.20;;
77038;SDS011;65970;50.476;4.840;2023-02-03T06:11:37;4.20;;;1.25;;
77038;SDS011;65970;50.476;4.840;2023-02-03T06:16:38;4.20;;;0.90;;
77038;SDS011;65970;50.476;4.840;2023-02-03T06:21:38;1.67;;;1.40;;
77038;SDS011;65970;50.476;4.840;2023-02-03T06:26:39;3.60;;;0.88;;
77038;SDS011;65970;50.476;4.840;2023-02-03T06:31:40;2.33;;;1.00;;
77038;SDS011;65970;50.476;4.840;2023-02-03T06:36:40;4.75;;;2.20;;
77038;SDS011;65970;50.476;4.840;2023-02-03T06:41:41;3.70;;;0.80;;
77038;SDS011;65970;50.476;4.840;2023-02-03T06:46:42;0.47;;;0.45;;
77038;SDS011;65970;50.476;4.840;2023-02-03T06:51:43;0.90;;;0.63;;
77038;SDS011;65970;50.476;4.840;2023-02-03T06:56:44;3.58;;;0.80;;
77038;SDS011;65970;50.476;4.840;2023-02-03T07:01:44;2.88;;;1.00;;
77038;SDS011;65970;50.476;4.840;2023-02-03T07:06:45;1.83;;;0.70;;
77038;SDS011;65970;50.476;4.840;2023-02-03T07:11:46;4.30;;;1.17;;
77038;SDS011;65970;50.476;4.840;2023-02-03T07:16:46;3.67;;;1.35;;
77038;SDS011;65970;50.476;4.840;2023-02-03T07:21:47;1.75;;;0.90;;
77038;SDS011;65970;50.476;4.840;2023-02-03T07:26:47;3.10;;;1.02;;
77038;SDS011;65970;50.476;4.840;2023-02-03T07:31:48;1.88;;;0.82;;
77038;SDS011;65970;50.476;4.840;2023-02-03T07:36:48;0.77;;;0.73;;
77038;SDS011;65970;50.476;4.840;2023-02-03T07:41:49;1.00;;;0.68;;
77038;SDS011;65970;50.476;4.840;2023-02-03T07:46:49;5.80;;;1.27;;
77038;SDS011;65970;50.476;4.840;2023-02-03T07:51:50;4.47;;;1.55;;
77038;SDS011;65970;50.476;4.840;2023-02-03T07:56:51;6.55;;;1.50;;
77038;SDS011;65970;50.476;4.840;2023-02-03T08:01:51;4.03;;;1.60;;
77038;SDS011;65970;50.476;4.840;2023-02-03T08:06:52;4.45;;;1.40;;
77038;SDS011;65970;50.476;4.840;2023-02-03T08:11:52;2.35;;;1.23;;
77038;SDS011;65970;50.476;4.840;2023-02-03T08:16:53;3.30;;;1.50;;
77038;SDS011;65970;50.476;4.840;2023-02-03T08:21:53;3.08;;;1.50;;
77038;SDS011;65970;50.476;4.840;2023-02-03T08:26:54;2.65;;;1.30;;
77038;SDS011;65970;50.476;4.840;2023-02-03T08:31:54;6.72;;;1.92;;
77038;SDS011;65970;50.476;4.840;2023-02-03T08:36:55;1.85;;;1.30;;
77038;SDS011;65970;50.476;4.840;2023-02-03T08:41:55;8.25;;;1.80;;
77038;SDS011;65970;50.476;4.840;2023-02-03T08:46:56;4.40;;;1.10;;
77038;SDS011;65970;50.476;4.840;2023-02-03T08:51:58;3.22;;;1.08;;
77038;SDS011;65970;50.476;4.840;2023-02-03T08:56:58;2.25;;;0.95;;
77038;SDS011;65970;50.476;4.840;2023-02-03T09:01:59;2.60;;;0.90;;
77038;SDS011;65970;50.476;4.840;2023-02-03T09:07:00;2.10;;;0.90;;
77038;SDS011;65970;50.476;4.840;2023-02-03T09:12:01;2.80;;;1.00;;
77038;SDS011;65970;50.476;4.840;2023-02-03T09:17:04;2.00;;;0.87;;
77038;SDS011;65970;50.476;4.840;2023-02-03T09:22:05;3.65;;;0.93;;
77038;SDS011;65970;50.476;4.840;2023-02-03T09:27:05;0.95;;;0.60;;
77038;SDS011;65970;50.476;4.840;2023-02-03T09:32:06;2.13;;;1.98;;
77038;SDS011;65970;50.476;4.840;2023-02-03T09:37:07;1.48;;;0.70;;
77038;SDS011;65970;50.476;4.840;2023-02-03T10:39:19;1.23;;;0.77;;
77038;SDS011;65970;50.476;4.840;2023-02-03T11:00:23;3.35;;;1.60;;
77038;SDS011;65970;50.476;4.840;2023-02-03T11:05:31;2.03;;;1.27;;
77038;SDS011;65970;50.476;4.840;2023-02-03T11:15:52;3.72;;;2.00;;
77038;SDS011;65970;50.476;4.840;2023-02-03T11:20:58;7.13;;;2.35;;
77038;SDS011;65970;50.476;4.840;2023-02-03T11:25:58;5.05;;;2.80;;
77038;SDS011;65970;50.476;4.840;2023-02-03T11:31:15;1.92;;;1.13;;
77038;SDS011;65970;50.476;4.840;2023-02-03T11:36:21;1.73;;;1.63;;
77038;SDS011;65970;50.476;4.840;2023-02-03T11:41:24;1.60;;;1.50;;
77038;SDS011;65970;50.476;4.840;2023-02-03T11:46:24;2.42;;;1.23;;
77038;SDS011;65970;50.476;4.840;2023-02-03T11:51:29;3.00;;;1.50;;
77038;SDS011;65970;50.476;4.840;2023-02-03T11:56:49;3.47;;;1.50;;
77038;SDS011;65970;50.476;4.840;2023-02-03T12:18:07;4.72;;;2.20;;
77038;SDS011;65970;50.476;4.840;2023-02-03T12:23:31;3.10;;;1.67;;
77038;SDS011;65970;50.476;4.840;2023-02-03T12:29:01;2.55;;;1.48;;
77038;SDS011;65970;50.476;4.840;2023-02-03T12:44:44;4.07;;;2.70;;
77038;SDS011;65970;50.476;4.840;2023-02-03T12:49:55;5.75;;;3.35;;
77038;SDS011;65970;50.476;4.840;2023-02-03T13:00:16;3.97;;;2.92;;
77038;SDS011;65970;50.476;4.840;2023-02-03T13:05:30;3.97;;;2.70;;
77038;SDS011;65970;50.476;4.840;2023-02-03T13:11:12;3.92;;;2.50;;
77038;SDS011;65970;50.476;4.840;2023-02-03T13:16:09;4.97;;;2.08;;
77038;SDS011;65970;50.476;4.840;2023-02-03T13:21:13;1.80;;;1.48;;
77038;SDS011;65970;50.476;4.840;2023-02-03T13:26:17;4.63;;;1.83;;
77038;SDS011;65970;50.476;4.840;2023-02-03T13:42:08;5.95;;;2.58;;
77038;SDS011;65970;50.476;4.840;2023-02-03T13:47:17;5.32;;;2.78;;
77038;SDS011;65970;50.476;4.840;2023-02-03T13:52:25;3.40;;;1.77;;
77038;SDS011;65970;50.476;4.840;2023-02-03T13:57:35;2.53;;;1.83;;
77038;SDS011;65970;50.476;4.840;2023-02-03T14:02:39;4.20;;;2.05;;
77038;SDS011;65970;50.476;4.840;2023-02-03T14:07:42;2.80;;;1.80;;
77038;SDS011;65970;50.476;4.840;2023-02-03T14:22:50;2.28;;;2.08;;
77038;SDS011;65970;50.476;4.840;2023-02-03T14:28:28;5.70;;;2.70;;
77038;SDS011;65970;50.476;4.840;2023-02-03T14:38:56;3.50;;;2.30;;
77038;SDS011;65970;50.476;4.840;2023-02-03T15:10:25;14.57;;;3.70;;
77038;SDS011;65970;50.476;4.840;2023-02-03T15:15:41;7.22;;;4.07;;
77038;SDS011;65970;50.476;4.840;2023-02-03T15:20:43;3.25;;;2.05;;
77038;SDS011;65970;50.476;4.840;2023-02-03T15:25:45;2.22;;;1.83;;
77038;SDS011;65970;50.476;4.840;2023-02-03T15:31:02;2.55;;;1.80;;
77038;SDS011;65970;50.476;4.840;2023-02-03T15:36:17;4.90;;;1.95;;
77038;SDS011;65970;50.476;4.840;2023-02-03T15:41:24;2.45;;;1.50;;
77038;SDS011;65970;50.476;4.840;2023-02-03T15:46:27;4.60;;;2.33;;
77038;SDS011;65970;50.476;4.840;2023-02-03T15:52:11;4.18;;;2.00;;
77038;SDS011;65970;50.476;4.840;2023-02-03T15:57:16;3.53;;;2.10;;
77038;SDS011;65970;50.476;4.840;2023-02-03T16:02:35;4.72;;;2.20;;
77038;SDS011;65970;50.476;4.840;2023-02-03T16:07:44;4.60;;;2.30;;
77038;SDS011;65970;50.476;4.840;2023-02-03T16:12:44;3.10;;;2.30;;
77038;SDS011;65970;50.476;4.840;2023-02-03T16:17:45;3.95;;;2.58;;
77038;SDS011;65970;50.476;4.840;2023-02-03T16:22:47;9.18;;;3.13;;
77038;SDS011;65970;50.476;4.840;2023-02-03T16:28:03;2.63;;;2.25;;
77038;SDS011;65970;50.476;4.840;2023-02-03T16:33:15;2.63;;;2.00;;
77038;SDS011;65970;50.476;4.840;2023-02-03T16:38:16;2.25;;;1.48;;
77038;SDS011;65970;50.476;4.840;2023-02-03T16:48:20;3.65;;;1.52;;
77038;SDS011;65970;50.476;4.840;2023-02-03T16:53:23;2.35;;;1.83;;
77038;SDS011;65970;50.476;4.840;2023-02-03T16:58:31;2.35;;;2.15;;
77038;SDS011;65970;50.476;4.840;2023-02-03T17:03:32;1.70;;;1.60;;
77038;SDS011;65970;50.476;4.840;2023-02-03T17:08:35;2.67;;;1.90;;
77038;SDS011;65970;50.476;4.840;2023-02-03T17:13:36;3.10;;;2.25;;
77038;SDS011;65970;50.476;4.840;2023-02-03T17:18:37;3.00;;;1.80;;
77038;SDS011;65970;50.476;4.840;2023-02-03T17:23:38;4.47;;;2.20;;
77038;SDS011;65970;50.476;4.840;2023-02-03T17:28:41;5.07;;;2.45;;
77038;SDS011;65970;50.476;4.840;2023-02-03T17:33:42;4.32;;;2.40;;
77038;SDS011;65970;50.476;4.840;2023-02-03T17:38:44;5.20;;;2.95;;
77038;SDS011;65970;50.476;4.840;2023-02-03T17:43:46;3.07;;;2.53;;
77038;SDS011;65970;50.476;4.840;2023-02-03T17:48:48;5.18;;;3.33;;
77038;SDS011;65970;50.476;4.840;2023-02-03T17:53:49;6.38;;;3.60;;
77038;SDS011;65970;50.476;4.840;2023-02-03T17:58:58;9.52;;;3.10;;
77038;SDS011;65970;50.476;4.840;2023-02-03T18:04:01;3.90;;;2.88;;
77038;SDS011;65970;50.476;4.840;2023-02-03T18:09:05;10.18;;;2.80;;
77038;SDS011;65970;50.476;4.840;2023-02-03T18:14:08;7.00;;;3.28;;
77038;SDS011;65970;50.476;4.840;2023-02-03T18:19:11;5.55;;;3.28;;
77038;SDS011;65970;50.476;4.840;2023-02-03T18:24:13;6.63;;;3.22;;
77038;SDS011;65970;50.476;4.840;2023-02-03T18:29:14;4.95;;;3.42;;
77038;SDS011;65970;50.476;4.840;2023-02-03T18:34:15;6.72;;;3.33;;
77038;SDS011;65970;50.476;4.840;2023-02-03T18:39:16;5.63;;;3.85;;
77038;SDS011;65970;50.476;4.840;2023-02-03T18:44:16;3.88;;;3.13;;
77038;SDS011;65970;50.476;4.840;2023-02-03T18:49:17;3.83;;;3.10;;
77038;SDS011;65970;50.476;4.840;2023-02-03T18:54:18;3.15;;;2.58;;
77038;SDS011;65970;50.476;4.840;2023-02-03T18:59:18;6.22;;;3.10;;
77038;SDS011;65970;50.476;4.840;2023-02-03T19:04:19;6.45;;;3.38;;
77038;SDS011;65970;50.476;4.840;2023-02-03T19:09:20;4.05;;;3.40;;
77038;SDS011;65970;50.476;4.840;2023-02-03T19:14:20;6.80;;;2.92;;
77038;SDS011;65970;50.476;4.840;2023-02-03T19:19:21;6.30;;;3.53;;
77038;SDS011;65970;50.476;4.840;2023-02-03T19:24:21;8.82;;;4.28;;
77038;SDS011;65970;50.476;4.840;2023-02-03T19:29:22;9.15;;;3.55;;
77038;SDS011;65970;50.476;4.840;2023-02-03T19:34:22;6.32;;;4.93;;
77038;SDS011;65970;50.476;4.840;2023-02-03T19:39:23;7.32;;;4.25;;
77038;SDS011;65970;50.476;4.840;2023-02-03T19:44:24;7.25;;;4.43;;
77038;SDS011;65970;50.476;4.840;2023-02-03T19:49:24;9.82;;;4.75;;
77038;SDS011;65970;50.476;4.840;2023-02-03T19:54:25;7.63;;;4.55;;
77038;SDS011;65970;50.476;4.840;2023-02-03T19:59:26;6.78;;;4.40;;
77038;SDS011;65970;50.476;4.840;2023-02-03T20:04:26;7.13;;;3.60;;
77038;SDS011;65970;50.476;4.840;2023-02-03T20:09:28;8.95;;;4.50;;
77038;SDS011;65970;50.476;4.840;2023-02-03T20:14:29;10.52;;;6.00;;
77038;SDS011;65970;50.476;4.840;2023-02-03T20:19:29;8.70;;;5.07;;
77038;SDS011;65970;50.476;4.840;2023-02-03T20:24:30;7.90;;;5.45;;
77038;SDS011;65970;50.476;4.840;2023-02-03T20:29:30;8.43;;;4.93;;
77038;SDS011;65970;50.476;4.840;2023-02-03T20:34:31;8.48;;;4.82;;
77038;SDS011;65970;50.476;4.840;2023-02-03T20:39:32;9.02;;;6.60;;
77038;SDS011;65970;50.476;4.840;2023-02-03T20:44:33;9.48;;;5.43;;
77038;SDS011;65970;50.476;4.840;2023-02-03T20:49:33;11.43;;;4.47;;
77038;SDS011;65970;50.476;4.840;2023-02-03T20:54:34;10.75;;;4.75;;
77038;SDS011;65970;50.476;4.840;2023-02-03T20:59:34;7.07;;;4.57;;
77038;SDS011;65970;50.476;4.840;2023-02-03T21:04:35;5.70;;;4.50;;
77038;SDS011;65970;50.476;4.840;2023-02-03T21:09:35;6.85;;;5.00;;
77038;SDS011;65970;50.476;4.840;2023-02-03T21:14:43;6.90;;;4.53;;
77038;SDS011;65970;50.476;4.840;2023-02-03T21:19:45;8.35;;;5.05;;
77038;SDS011;65970;50.476;4.840;2023-02-03T21:24:52;8.48;;;5.45;;
77038;SDS011;65970;50.476;4.840;2023-02-03T21:29:55;8.85;;;5.78;;
77038;SDS011;65970;50.476;4.840;2023-02-03T21:34:56;10.65;;;4.88;;
77038;SDS011;65970;50.476;4.840;2023-02-03T21:39:57;10.95;;;5.95;;
77038;SDS011;65970;50.476;4.840;2023-02-03T21:44:58;9.13;;;6.25;;
77038;SDS011;65970;50.476;4.840;2023-02-03T21:49:58;9.82;;;6.53;;
77038;SDS011;65970;50.476;4.840;2023-02-03T21:54:59;8.30;;;6.55;;
77038;SDS011;65970;50.476;4.840;2023-02-03T22:00:00;13.65;;;7.00;;
77038;SDS011;65970;50.476;4.840;2023-02-03T22:05:01;11.60;;;7.50;;
77038;SDS011;65970;50.476;4.840;2023-02-03T22:10:02;11.60;;;7.28;;
77038;SDS011;65970;50.476;4.840;2023-02-03T22:15:03;10.00;;;7.22;;
77038;SDS011;65970;50.476;4.840;2023-02-03T22:20:04;13.13;;;7.07;;
77038;SDS011;65970;50.476;4.840;2023-02-03T22:25:05;13.52;;;8.43;;
77038;SDS011;65970;50.476;4.840;2023-02-03T22:30:06;13.38;;;8.23;;
77038;SDS011;65970;50.476;4.840;2023-02-03T22:35:07;10.98;;;6.70;;
77038;SDS011;65970;50.476;4.840;2023-02-03T22:40:08;12.45;;;7.95;;
77038;SDS011;65970;50.476;4.840;2023-02-03T22:45:09;11.75;;;7.35;;
77038;SDS011;65970;50.476;4.840;2023-02-03T22:50:11;13.23;;;8.70;;
77038;SDS011;65970;50.476;4.840;2023-02-03T22:55:13;17.97;;;8.63;;
77038;SDS011;65970;50.476;4.840;2023-02-03T23:00:18;12.32;;;8.55;;
77038;SDS011;65970;50.476;4.840;2023-02-03T23:05:20;10.43;;;7.32;;
77038;SDS011;65970;50.476;4.840;2023-02-03T23:10:22;11.63;;;9.60;;
77038;SDS011;65970;50.476;4.840;2023-02-03T23:15:24;12.03;;;7.43;;
77038;SDS011;65970;50.476;4.840;2023-02-03T23:20:25;12.73;;;8.35;;
77038;SDS011;65970;50.476;4.840;2023-02-03T23:25:26;12.60;;;7.95;;
77038;SDS011;65970;50.476;4.840;2023-02-03T23:30:26;13.25;;;8.55;;
77038;SDS011;65970;50.476;4.840;2023-02-03T23:35:27;12.80;;;8.30;;
77038;SDS011;65970;50.476;4.840;2023-02-03T23:40:27;13.55;;;9.50;;
77038;SDS011;65970;50.476;4.840;2023-02-03T23:45:28;14.10;;;8.00;;
77038;SDS011;65970;50.476;4.840;2023-02-03T23:50:28;12.82;;;7.65;;
77038;SDS011;65970;50.476;4.840;2023-02-03T23:55:29;11.02;;;7.90;;
